createdAt,value
2018-07-20T00:00:39.621Z,9.13
2018-07-20T00:03:09.772Z,10.73
2018-07-20T00:05:40.224Z,11.20
2018-07-20T00:08:08.910Z,10.73
2018-07-20T00:10:36.780Z,11.20
2018-07-20T00:13:06.422Z,11.53
2018-07-20T00:15:34.229Z,11.57
2018-07-20T00:18:02.308Z,11.77
2018-07-20T00:20:30.238Z,10.80
2018-07-20T00:22:59.938Z,10.90
2018-07-20T00:25:31.341Z,11.50
2018-07-20T00:28:00.220Z,11.93
2018-07-20T00:30:29.154Z,11.73
2018-07-20T00:32:57.065Z,11.30
2018-07-20T00:35:24.935Z,11.57
2018-07-20T00:37:52.948Z,11.53
2018-07-20T00:40:21.510Z,12.33
2018-07-20T00:42:49.427Z,11.87
2018-07-20T00:45:17.116Z,11.37
2018-07-20T00:47:44.963Z,11.70
2018-07-20T00:50:12.737Z,10.97
2018-07-20T00:52:40.654Z,10.50
2018-07-20T00:55:09.760Z,11.60
2018-07-20T00:57:37.449Z,10.83
2018-07-20T01:00:05.384Z,11.60
2018-07-20T01:02:33.211Z,10.73
2018-07-20T01:05:01.026Z,11.70
2018-07-20T01:07:28.929Z,10.67
2018-07-20T01:09:56.730Z,10.70
2018-07-20T01:12:24.779Z,11.63
2018-07-20T01:14:52.808Z,11.17
2018-07-20T01:17:20.788Z,10.70
2018-07-20T01:19:49.592Z,10.23
2018-07-20T01:22:18.150Z,10.80
2018-07-20T01:24:45.964Z,10.80
2018-07-20T01:27:13.809Z,10.27
2018-07-20T01:29:41.655Z,10.40
2018-07-20T01:32:09.778Z,10.97
2018-07-20T01:34:37.764Z,11.00
2018-07-20T01:37:05.559Z,10.97
2018-07-20T01:39:33.168Z,9.97
2018-07-20T01:42:00.808Z,11.33
2018-07-20T01:44:28.393Z,11.43
2018-07-20T01:46:56.176Z,11.77
2018-07-20T01:49:24.239Z,11.77
2018-07-20T01:51:52.307Z,12.10
2018-07-20T01:54:22.509Z,12.03
2018-07-20T01:56:51.606Z,11.47
2018-07-20T01:59:20.611Z,11.80
2018-07-20T02:01:51.533Z,13.13
2018-07-20T02:04:20.405Z,12.90
2018-07-20T02:06:49.005Z,11.93
2018-07-20T02:09:16.791Z,12.70
2018-07-20T02:11:44.699Z,12.10
2018-07-20T02:14:12.639Z,12.60
2018-07-20T02:16:40.465Z,12.63
2018-07-20T02:19:09.903Z,11.60
2018-07-20T02:21:37.814Z,11.23
2018-07-20T02:24:05.714Z,11.43
2018-07-20T02:26:33.282Z,12.27
2018-07-20T02:29:00.877Z,11.37
2018-07-20T02:31:28.458Z,11.57
2018-07-20T02:33:56.151Z,11.80
2018-07-20T02:36:24.182Z,11.83
2018-07-20T02:38:52.001Z,10.10
2018-07-20T02:41:19.930Z,10.43
2018-07-20T02:43:47.782Z,10.63
2018-07-20T02:46:17.237Z,11.13
2018-07-20T02:48:44.909Z,11.50
2018-07-20T02:51:12.569Z,11.47
2018-07-20T02:53:40.211Z,11.43
2018-07-20T02:56:07.809Z,10.67
2018-07-20T02:58:35.367Z,11.23
2018-07-20T03:01:02.941Z,11.10
2018-07-20T03:03:30.770Z,11.33
2018-07-20T03:05:58.321Z,11.77
2018-07-20T03:08:26.105Z,11.80
2018-07-20T03:10:54.255Z,11.50
2018-07-20T03:13:22.223Z,11.67
2018-07-20T03:15:50.212Z,11.57
2018-07-20T03:18:18.012Z,12.07
2018-07-20T03:20:45.759Z,12.83
2018-07-20T03:23:13.367Z,11.90
2018-07-20T03:25:41.024Z,11.60
2018-07-20T03:28:08.828Z,12.90
2018-07-20T03:30:36.417Z,12.97
2018-07-20T03:33:04.032Z,12.03
2018-07-20T03:35:31.786Z,11.17
2018-07-20T03:37:59.366Z,11.10
2018-07-20T03:40:27.605Z,11.30
2018-07-20T03:42:55.494Z,11.43
2018-07-20T03:45:23.405Z,11.90
2018-07-20T03:47:51.248Z,11.43
2018-07-20T03:50:18.884Z,11.53
2018-07-20T03:52:46.449Z,11.37
2018-07-20T03:55:14.132Z,11.17
2018-07-20T03:57:41.959Z,11.70
2018-07-20T04:00:09.562Z,11.73
2018-07-20T04:02:37.313Z,11.53
2018-07-20T04:05:04.943Z,11.83
2018-07-20T04:07:32.621Z,16.37
2018-07-20T04:10:00.209Z,14.30
2018-07-20T04:12:27.928Z,12.40
2018-07-20T04:14:55.817Z,12.90
2018-07-20T04:17:23.874Z,12.27
2018-07-20T04:19:51.773Z,12.00
2018-07-20T04:22:19.499Z,12.10
2018-07-20T04:24:47.075Z,11.60
2018-07-20T04:27:15.073Z,12.40
2018-07-20T04:29:42.760Z,12.83
2018-07-20T04:32:10.440Z,12.03
2018-07-20T04:34:38.026Z,13.07
2018-07-20T04:37:05.626Z,12.67
2018-07-20T04:39:33.233Z,13.90
2018-07-20T04:42:00.816Z,13.77
2018-07-20T04:44:28.389Z,15.10
2018-07-20T04:46:56.029Z,14.10
2018-07-20T04:49:23.979Z,14.00
2018-07-20T04:51:51.700Z,14.00
2018-07-20T04:54:19.296Z,13.77
2018-07-20T04:56:46.982Z,12.83
2018-07-20T04:59:14.540Z,12.97
2018-07-20T05:01:42.201Z,13.40
2018-07-20T05:04:09.840Z,12.80
2018-07-20T05:06:37.475Z,12.87
2018-07-20T05:09:07.389Z,12.27
2018-07-20T05:11:35.011Z,14.20
2018-07-20T05:14:02.579Z,12.60
2018-07-20T05:16:30.281Z,14.30
2018-07-20T05:18:58.000Z,13.80
2018-07-20T05:21:25.862Z,13.30
2018-07-20T05:23:53.768Z,14.57
2018-07-20T05:26:21.696Z,15.40
2018-07-20T05:28:49.369Z,15.17
2018-07-20T05:31:17.134Z,15.80
2018-07-20T05:33:44.748Z,15.83
2018-07-20T05:36:12.436Z,15.80
2018-07-20T05:38:40.194Z,12.60
2018-07-20T05:41:07.886Z,13.27
2018-07-20T05:43:35.501Z,11.63
2018-07-20T05:46:03.102Z,12.37
2018-07-20T05:48:30.697Z,11.77
2018-07-20T05:50:58.269Z,11.40
2018-07-20T05:53:26.291Z,11.10
2018-07-20T05:55:54.357Z,11.40
2018-07-20T05:58:22.399Z,10.83
2018-07-20T06:00:50.910Z,11.10
2018-07-20T06:03:18.516Z,10.47
2018-07-20T06:05:46.130Z,10.87
2018-07-20T06:08:13.736Z,11.03
2018-07-20T06:10:41.442Z,10.80
2018-07-20T06:13:09.047Z,10.97
2018-07-20T06:15:36.665Z,10.67
2018-07-20T06:18:04.264Z,10.72
2018-07-20T06:20:31.833Z,10.48
2018-07-20T06:22:59.433Z,12.03
2018-07-20T06:25:27.162Z,11.83
2018-07-20T06:27:55.099Z,11.57
2018-07-20T06:30:23.020Z,12.37
2018-07-20T06:32:50.799Z,11.73
2018-07-20T06:35:18.415Z,12.55
2018-07-20T06:37:45.991Z,10.32
2018-07-20T06:40:13.613Z,10.18
2018-07-20T06:42:41.331Z,10.70
2018-07-20T06:45:08.938Z,10.58
2018-07-20T06:47:36.556Z,10.78
2018-07-20T06:50:18.857Z,10.55
2018-07-20T06:52:47.495Z,9.98
2018-07-20T06:55:15.109Z,9.85
2018-07-20T06:57:42.831Z,10.05
2018-07-20T07:00:10.543Z,9.53
2018-07-20T07:02:38.149Z,9.30
2018-07-20T07:05:06.958Z,9.00
2018-07-20T07:07:34.710Z,9.18
2018-07-20T07:10:02.293Z,10.82
2018-07-20T07:12:29.869Z,11.18
2018-07-20T07:14:57.619Z,10.00
2018-07-20T07:17:25.329Z,10.13
2018-07-20T07:19:53.189Z,10.70
2018-07-20T07:22:20.917Z,9.13
2018-07-20T07:24:48.576Z,9.08
2018-07-20T07:27:16.172Z,9.63
2018-07-20T07:29:43.805Z,10.72
2018-07-20T07:32:11.548Z,9.43
2018-07-20T07:34:39.217Z,10.00
2018-07-20T07:37:06.829Z,9.23
2018-07-20T07:39:34.446Z,10.43
2018-07-20T07:42:02.093Z,9.80
2018-07-20T07:44:29.676Z,9.63
2018-07-20T07:46:57.351Z,9.70
2018-07-20T07:49:25.267Z,9.53
2018-07-20T07:51:53.071Z,9.60
2018-07-20T07:54:20.804Z,9.78
2018-07-20T07:56:48.705Z,8.93
2018-07-20T07:59:16.297Z,9.15
2018-07-20T08:01:43.905Z,10.03
2018-07-20T08:04:11.626Z,8.98
2018-07-20T08:06:39.245Z,8.90
2018-07-20T08:09:08.693Z,9.43
2018-07-20T08:11:36.585Z,8.38
2018-07-20T08:14:04.201Z,10.20
2018-07-20T08:16:31.913Z,10.08
2018-07-20T08:18:59.509Z,10.08
2018-07-20T08:21:27.225Z,9.85
2018-07-20T08:23:55.205Z,9.55
2018-07-20T08:26:23.154Z,9.83
2018-07-20T08:28:50.919Z,10.13
2018-07-20T08:31:18.616Z,10.70
2018-07-20T08:33:46.181Z,9.73
2018-07-20T08:36:13.834Z,11.45
2018-07-20T08:38:41.503Z,10.82
2018-07-20T08:41:09.157Z,11.65
2018-07-20T08:43:36.762Z,11.18
2018-07-20T08:46:04.453Z,10.15
2018-07-20T08:48:32.097Z,9.40
2018-07-20T08:50:59.728Z,9.18
2018-07-20T08:53:27.497Z,8.85
2018-07-20T08:55:55.373Z,9.48
2018-07-20T08:58:23.426Z,7.62
2018-07-20T09:00:51.823Z,8.68
2018-07-20T09:03:19.435Z,9.33
2018-07-20T09:05:47.037Z,8.43
2018-07-20T09:08:14.646Z,10.45
2018-07-20T09:10:42.453Z,10.10
2018-07-20T09:13:10.085Z,9.20
2018-07-20T09:15:37.677Z,8.55
2018-07-20T09:18:05.322Z,8.85
2018-07-20T09:20:32.933Z,7.05
2018-07-20T09:23:00.529Z,6.70
2018-07-20T09:25:28.146Z,7.40
2018-07-20T09:27:56.049Z,7.58
2018-07-20T09:30:23.928Z,7.25
2018-07-20T09:32:51.720Z,7.45
2018-07-20T09:35:19.386Z,7.30
2018-07-20T09:37:46.969Z,7.92
2018-07-20T09:40:14.585Z,5.30
2018-07-20T09:42:42.364Z,5.78
2018-07-20T09:45:09.975Z,6.95
2018-07-20T09:47:37.624Z,6.53
2018-07-20T09:50:05.377Z,6.03
2018-07-20T09:52:33.032Z,5.70
2018-07-20T09:55:00.766Z,5.20
2018-07-20T09:57:28.383Z,5.87
2018-07-20T09:59:56.178Z,5.53
2018-07-20T10:02:24.157Z,5.85
2018-07-20T10:04:52.218Z,4.95
2018-07-20T10:07:19.900Z,4.87
2018-07-20T10:09:47.512Z,5.42
2018-07-20T10:12:15.122Z,5.15
2018-07-20T10:14:42.785Z,5.10
2018-07-20T10:17:10.460Z,4.87
2018-07-20T10:19:38.086Z,4.92
2018-07-20T10:22:05.908Z,4.03
2018-07-20T10:24:33.501Z,4.17
2018-07-20T10:27:01.089Z,4.95
2018-07-20T10:29:28.720Z,4.70
2018-07-20T10:31:56.362Z,4.35
2018-07-20T10:34:24.317Z,3.90
2018-07-20T10:36:52.120Z,4.22
2018-07-20T10:39:21.644Z,4.47
2018-07-20T10:41:49.337Z,4.55
2018-07-20T10:44:16.948Z,4.05
2018-07-20T10:46:44.558Z,3.95
2018-07-20T10:49:12.298Z,4.20
2018-07-20T10:51:39.990Z,4.15
2018-07-20T10:54:07.658Z,4.33
2018-07-20T10:56:35.277Z,4.78
2018-07-20T10:59:02.853Z,4.47
2018-07-20T11:01:30.586Z,4.80
2018-07-20T11:03:58.268Z,4.60
2018-07-20T11:06:26.135Z,4.30
2018-07-20T11:08:54.120Z,4.12
2018-07-20T11:11:22.406Z,4.40
2018-07-20T11:13:50.084Z,4.75
2018-07-20T11:16:17.699Z,4.70
2018-07-20T11:18:45.360Z,4.90
2018-07-20T11:21:13.029Z,5.03
2018-07-20T11:23:40.671Z,4.55
2018-07-20T11:26:08.675Z,4.72
2018-07-20T11:28:36.238Z,5.62
2018-07-20T11:31:03.860Z,5.78
2018-07-20T11:33:31.512Z,5.30
2018-07-20T11:35:59.152Z,5.20
2018-07-20T11:38:26.950Z,5.05
2018-07-20T11:40:55.224Z,5.28
2018-07-20T11:43:23.140Z,4.60
2018-07-20T11:45:50.839Z,5.58
2018-07-20T11:48:18.558Z,5.42
2018-07-20T11:50:46.240Z,4.97
2018-07-20T11:53:13.888Z,5.70
2018-07-20T11:55:41.695Z,5.12
2018-07-20T11:58:09.322Z,5.62
2018-07-20T12:00:36.961Z,5.47
2018-07-20T12:03:04.725Z,5.20
2018-07-20T12:05:32.314Z,5.92
2018-07-20T12:07:59.921Z,5.10
2018-07-20T12:10:27.764Z,5.08
2018-07-20T12:12:55.675Z,5.40
2018-07-20T12:15:23.541Z,5.40
2018-07-20T12:17:52.526Z,5.53
2018-07-20T12:20:20.962Z,5.65
2018-07-20T12:22:48.541Z,5.80
2018-07-20T12:25:16.145Z,5.28
2018-07-20T12:27:43.748Z,5.37
2018-07-20T12:30:11.532Z,5.40
2018-07-20T12:32:39.329Z,5.70
2018-07-20T12:35:06.941Z,6.55
2018-07-20T12:37:34.538Z,5.72
2018-07-20T12:40:02.273Z,6.53
2018-07-20T12:42:29.918Z,6.28
2018-07-20T12:44:57.553Z,6.00
2018-07-20T12:47:25.362Z,5.87
2018-07-20T12:49:53.376Z,6.22
2018-07-20T12:52:21.210Z,5.80
2018-07-20T12:54:48.877Z,5.92
2018-07-20T12:57:16.440Z,5.83
2018-07-20T12:59:44.048Z,5.95
2018-07-20T13:02:11.837Z,5.85
2018-07-20T13:04:39.481Z,6.15
2018-07-20T13:07:07.103Z,6.17
2018-07-20T13:09:34.722Z,13.93
2018-07-20T13:12:02.405Z,8.10
2018-07-20T13:14:29.925Z,6.05
2018-07-20T13:16:57.617Z,5.58
2018-07-20T13:19:25.298Z,6.22
2018-07-20T13:21:53.124Z,6.15
2018-07-20T13:24:20.946Z,5.12
2018-07-20T13:26:48.534Z,6.50
2018-07-20T13:29:16.164Z,6.80
2018-07-20T13:31:43.740Z,6.03
2018-07-20T13:34:11.358Z,7.37
2018-07-20T13:36:39.146Z,6.75
2018-07-20T13:39:08.345Z,7.70
2018-07-20T13:41:44.930Z,7.30
2018-07-20T13:44:15.782Z,8.30
2018-07-20T13:46:47.176Z,7.53
2018-07-20T13:49:15.053Z,8.30
2018-07-20T13:51:42.753Z,7.37
2018-07-20T13:54:11.972Z,7.62
2018-07-20T13:56:44.352Z,7.30
2018-07-20T13:59:20.866Z,7.08
2018-07-20T14:01:57.114Z,6.25
2018-07-20T14:04:27.998Z,7.00
2018-07-20T14:06:59.588Z,7.92
2018-07-20T14:09:38.206Z,6.45
2018-07-20T14:12:06.084Z,7.50
2018-07-20T14:14:35.103Z,19.50
2018-07-20T14:17:02.897Z,7.20
2018-07-20T14:19:30.529Z,6.75
2018-07-20T14:21:58.101Z,7.05
2018-07-20T14:24:25.817Z,6.35
2018-07-20T14:26:53.685Z,7.58
2018-07-20T14:29:21.676Z,12.88
2018-07-20T14:31:49.491Z,7.60
2018-07-20T14:34:16.964Z,7.45
2018-07-20T14:36:49.214Z,6.17
2018-07-20T14:39:21.680Z,6.80
2018-07-20T14:41:54.511Z,6.70
2018-07-20T14:44:36.884Z,6.83
2018-07-20T14:47:06.052Z,8.35
2018-07-20T14:49:35.260Z,7.55
2018-07-20T14:52:03.034Z,6.80
2018-07-20T14:54:30.617Z,6.90
2018-07-20T14:56:58.297Z,7.10
2018-07-20T14:59:25.899Z,6.92
2018-07-20T15:01:53.774Z,6.37
2018-07-20T15:04:21.662Z,6.65
2018-07-20T15:06:49.298Z,7.03
2018-07-20T15:09:16.889Z,6.60
2018-07-20T15:11:44.525Z,7.72
2018-07-20T15:14:12.161Z,7.40
2018-07-20T15:16:39.816Z,11.00
2018-07-20T15:19:07.398Z,7.25
2018-07-20T15:21:35.008Z,6.67
2018-07-20T15:24:02.753Z,7.62
2018-07-20T15:26:30.505Z,6.60
2018-07-20T15:28:58.356Z,6.85
2018-07-20T15:31:26.201Z,8.10
2018-07-20T15:33:54.035Z,6.83
2018-07-20T15:36:22.087Z,7.30
2018-07-20T15:38:50.286Z,7.85
2018-07-20T15:41:17.981Z,6.95
2018-07-20T15:43:45.670Z,8.20
2018-07-20T15:46:13.350Z,7.25
2018-07-20T15:48:41.019Z,7.33
2018-07-20T15:51:08.659Z,7.75
2018-07-20T15:53:37.223Z,7.30
2018-07-20T15:56:03.882Z,6.95
2018-07-20T15:58:31.473Z,6.95
2018-07-20T16:00:59.073Z,6.87
2018-07-20T16:03:26.949Z,6.90
2018-07-20T16:05:54.711Z,6.62
2018-07-20T16:08:22.615Z,6.70
2018-07-20T16:10:50.725Z,6.80
2018-07-20T16:13:18.391Z,6.20
2018-07-20T16:15:45.963Z,6.08
2018-07-20T16:18:13.575Z,6.45
2018-07-20T16:20:41.225Z,6.10
2018-07-20T16:23:08.927Z,6.62
2018-07-20T16:25:36.595Z,6.17
2018-07-20T16:28:04.308Z,6.42
2018-07-20T16:30:31.941Z,6.47
2018-07-20T16:32:59.558Z,6.30
2018-07-20T16:35:27.217Z,6.33
2018-07-20T16:37:54.969Z,6.65
2018-07-20T16:40:22.958Z,6.30
2018-07-20T16:42:51.164Z,6.78
2018-07-20T16:45:18.833Z,12.20
2018-07-20T16:47:46.451Z,19.77
2018-07-20T16:50:14.046Z,11.85
2018-07-20T16:52:41.633Z,10.00
2018-07-20T16:55:09.361Z,10.18
2018-07-20T16:57:37.343Z,9.75
2018-07-20T17:00:05.780Z,10.37
2018-07-20T17:02:33.379Z,10.20
2018-07-20T17:05:01.000Z,10.63
2018-07-20T17:07:28.674Z,11.07
2018-07-20T17:09:56.776Z,11.93
2018-07-20T17:12:24.439Z,11.93
2018-07-20T17:14:52.006Z,12.67
2018-07-20T17:17:19.689Z,13.50
2018-07-20T17:19:47.262Z,13.50
2018-07-20T17:22:14.901Z,12.83
2018-07-20T17:24:42.649Z,14.47
2018-07-20T17:27:10.404Z,15.13
2018-07-20T17:29:38.299Z,14.37
2018-07-20T17:32:05.926Z,18.87
2018-07-20T17:34:33.552Z,16.77
2018-07-20T17:37:01.366Z,16.40
2018-07-20T17:39:28.974Z,17.50
2018-07-20T17:41:56.624Z,16.53
2018-07-20T17:44:24.221Z,16.57
2018-07-20T17:46:51.869Z,15.93
2018-07-20T17:49:19.432Z,15.90
2018-07-20T17:51:47.026Z,14.70
2018-07-20T17:54:14.605Z,15.17
2018-07-20T17:56:42.249Z,16.90
2018-07-20T17:59:09.933Z,14.67
2018-07-20T18:01:37.748Z,15.90
2018-07-20T18:04:05.383Z,16.20
2018-07-20T18:06:33.554Z,16.00
2018-07-20T18:09:01.166Z,16.30
2018-07-20T18:11:28.824Z,18.77
2018-07-20T18:13:56.453Z,16.53
2018-07-20T18:16:24.079Z,16.17
2018-07-20T18:18:51.698Z,16.50
2018-07-20T18:21:19.343Z,18.93
2018-07-20T18:23:46.901Z,18.97
2018-07-20T18:26:14.533Z,17.43
2018-07-20T18:28:42.192Z,15.83
2018-07-20T18:31:10.028Z,15.53
2018-07-20T18:33:38.197Z,16.13
2018-07-20T18:36:05.777Z,16.10
2018-07-20T18:38:33.350Z,17.13
2018-07-20T18:41:00.933Z,17.03
2018-07-20T18:43:28.553Z,18.03
2018-07-20T18:45:56.414Z,18.23
2018-07-20T18:48:24.010Z,17.00
2018-07-20T18:50:51.769Z,16.20
2018-07-20T18:53:19.341Z,16.80
2018-07-20T18:55:46.929Z,17.87
2018-07-20T18:58:14.547Z,16.40
2018-07-20T19:00:42.170Z,17.97
2018-07-20T19:03:09.927Z,18.43
2018-07-20T19:05:37.986Z,17.67
2018-07-20T19:08:05.573Z,17.97
2018-07-20T19:10:33.134Z,16.57
2018-07-20T19:13:00.717Z,17.20
2018-07-20T19:15:28.416Z,16.40
2018-07-20T19:17:56.033Z,15.53
2018-07-20T19:20:23.638Z,15.73
2018-07-20T19:22:51.213Z,14.77
2018-07-20T19:25:18.819Z,16.13
2018-07-20T19:27:46.377Z,16.63
2018-07-20T19:30:14.001Z,17.10
2018-07-20T19:32:41.724Z,16.73
2018-07-20T19:35:09.471Z,18.87
2018-07-20T19:37:37.112Z,16.67
2018-07-20T19:40:04.757Z,14.93
2018-07-20T19:42:32.508Z,15.07
2018-07-20T19:45:00.076Z,13.13
2018-07-20T19:47:27.688Z,13.70
2018-07-20T19:49:55.791Z,13.70
2018-07-20T19:52:26.855Z,15.00
2018-07-20T19:54:57.573Z,12.60
2018-07-20T19:57:37.069Z,13.47
2018-07-20T20:00:07.744Z,17.73
2018-07-20T20:02:35.790Z,16.27
2018-07-20T20:05:07.204Z,14.50
2018-07-20T20:07:38.635Z,15.13
2018-07-20T20:10:07.978Z,14.37
2018-07-20T20:12:36.990Z,14.87
2018-07-20T20:15:06.740Z,15.10
2018-07-20T20:17:35.848Z,16.67
2018-07-20T20:20:04.286Z,12.13
2018-07-20T20:22:31.872Z,15.67
2018-07-20T20:24:59.472Z,15.27
2018-07-20T20:27:27.237Z,15.67
2018-07-20T20:29:54.809Z,15.37
2018-07-20T20:32:22.417Z,15.90
2018-07-20T20:34:49.993Z,14.33
2018-07-20T20:37:17.613Z,13.37
2018-07-20T20:39:45.165Z,14.37
2018-07-20T20:42:13.005Z,14.27
2018-07-20T20:44:40.883Z,14.60
2018-07-20T20:47:08.723Z,14.93
2018-07-20T20:49:36.622Z,14.67
2018-07-20T20:52:04.317Z,14.20
2018-07-20T20:54:32.012Z,14.53
2018-07-20T20:56:59.941Z,13.40
2018-07-20T20:59:27.656Z,12.67
2018-07-20T21:01:55.433Z,13.23
2018-07-20T21:04:23.137Z,13.77
2018-07-20T21:06:50.794Z,12.07
2018-07-20T21:09:18.510Z,12.63
2018-07-20T21:11:46.314Z,12.10
2018-07-20T21:14:13.973Z,12.73
2018-07-20T21:16:41.568Z,12.43
2018-07-20T21:19:09.313Z,12.17
2018-07-20T21:21:37.395Z,12.17
2018-07-20T21:24:05.838Z,11.93
2018-07-20T21:26:33.441Z,10.90
2018-07-20T21:29:01.226Z,9.67
2018-07-20T21:31:29.486Z,9.87
2018-07-20T21:33:57.216Z,9.97
2018-07-20T21:36:24.912Z,10.67
2018-07-20T21:38:52.498Z,13.77
2018-07-20T21:41:20.369Z,14.23
2018-07-20T21:43:48.023Z,12.93
2018-07-20T21:46:15.634Z,12.07
2018-07-20T21:48:43.214Z,13.67
2018-07-20T21:51:10.824Z,12.53
2018-07-20T21:53:38.529Z,13.07
2018-07-20T21:56:06.465Z,11.50
2018-07-20T21:58:34.053Z,12.00
2018-07-20T22:01:01.967Z,12.13
2018-07-20T22:03:29.767Z,11.40
2018-07-20T22:05:57.765Z,11.57
2018-07-20T22:08:26.169Z,11.10
2018-07-20T22:10:53.913Z,11.43
2018-07-20T22:13:21.686Z,11.97
2018-07-20T22:15:49.470Z,11.80
2018-07-20T22:18:17.133Z,12.70
2018-07-20T22:20:44.876Z,13.13
2018-07-20T22:23:12.579Z,13.37
2018-07-20T22:25:40.265Z,14.90
2018-07-20T22:28:08.124Z,14.40
2018-07-20T22:30:36.055Z,13.93
2018-07-20T22:33:03.870Z,13.33
2018-07-20T22:35:31.573Z,14.00
2018-07-20T22:37:59.586Z,14.17
2018-07-20T22:40:27.302Z,15.67
2018-07-20T22:42:54.960Z,13.47
2018-07-20T22:45:22.731Z,13.10
2018-07-20T22:47:50.443Z,13.07
2018-07-20T22:50:18.171Z,11.00
2018-07-20T22:52:45.930Z,11.47
2018-07-20T22:55:13.681Z,11.87
2018-07-20T22:57:41.478Z,10.57
2018-07-20T23:00:09.240Z,10.60
2018-07-20T23:02:37.025Z,10.93
2018-07-20T23:05:04.862Z,10.00
2018-07-20T23:07:32.825Z,10.43
2018-07-20T23:10:00.546Z,10.07
2018-07-20T23:12:28.191Z,9.80
2018-07-20T23:14:55.777Z,10.50
2018-07-20T23:17:23.353Z,9.93
2018-07-20T23:19:50.931Z,9.47
2018-07-20T23:22:18.543Z,10.23
2018-07-20T23:24:46.145Z,10.20
2018-07-20T23:27:13.752Z,10.33
2018-07-20T23:29:41.598Z,10.60
2018-07-20T23:32:09.240Z,10.60
2018-07-20T23:34:36.921Z,10.20
2018-07-20T23:37:04.752Z,10.33
2018-07-20T23:39:32.588Z,10.30
2018-07-20T23:42:00.214Z,10.97
2018-07-20T23:44:27.892Z,10.63
2018-07-20T23:46:55.456Z,10.63
2018-07-20T23:49:23.089Z,11.50
2018-07-20T23:51:50.678Z,11.90
2018-07-20T23:54:18.301Z,10.60
2018-07-20T23:56:46.138Z,12.07
2018-07-20T23:59:13.706Z,12.30
